sensor_id;sensor_type;location;lat;lon;timestamp;P1;durP1;ratioP1;P2;durP2;ratioP2
68050;SDS011;54839;51.364;7.246;2023-05-10T00:02:25;2.67;;;2.47;;
68050;SDS011;54839;51.364;7.246;2023-05-10T00:04:51;2.20;;;2.00;;
68050;SDS011;54839;51.364;7.246;2023-05-10T00:07:17;2.70;;;2.10;;
68050;SDS011;54839;51.364;7.246;2023-05-10T00:09:43;3.80;;;2.23;;
68050;SDS011;54839;51.364;7.246;2023-05-10T00:12:08;3.50;;;3.27;;
68050;SDS011;54839;51.364;7.246;2023-05-10T00:14:34;2.90;;;2.60;;
68050;SDS011;54839;51.364;7.246;2023-05-10T00:17:00;2.53;;;2.33;;
68050;SDS011;54839;51.364;7.246;2023-05-10T00:19:26;2.80;;;2.50;;
68050;SDS011;54839;51.364;7.246;2023-05-10T00:21:51;4.00;;;3.43;;
68050;SDS011;54839;51.364;7.246;2023-05-10T00:24:17;3.03;;;2.80;;
68050;SDS011;54839;51.364;7.246;2023-05-10T00:26:42;3.60;;;3.13;;
68050;SDS011;54839;51.364;7.246;2023-05-10T00:29:08;3.67;;;3.37;;
68050;SDS011;54839;51.364;7.246;2023-05-10T00:31:34;4.30;;;3.90;;
68050;SDS011;54839;51.364;7.246;2023-05-10T00:33:59;5.00;;;4.47;;
68050;SDS011;54839;51.364;7.246;2023-05-10T00:36:25;4.70;;;4.20;;
68050;SDS011;54839;51.364;7.246;2023-05-10T00:38:51;6.83;;;4.73;;
68050;SDS011;54839;51.364;7.246;2023-05-10T00:41:16;4.80;;;4.03;;
68050;SDS011;54839;51.364;7.246;2023-05-10T00:43:42;4.67;;;4.27;;
68050;SDS011;54839;51.364;7.246;2023-05-10T00:46:07;5.97;;;5.37;;
68050;SDS011;54839;51.364;7.246;2023-05-10T00:48:33;4.63;;;4.17;;
68050;SDS011;54839;51.364;7.246;2023-05-10T00:51:00;5.70;;;5.10;;
68050;SDS011;54839;51.364;7.246;2023-05-10T00:53:26;6.10;;;5.30;;
68050;SDS011;54839;51.364;7.246;2023-05-10T00:55:52;5.07;;;4.50;;
68050;SDS011;54839;51.364;7.246;2023-05-10T00:58:18;5.83;;;5.30;;
68050;SDS011;54839;51.364;7.246;2023-05-10T01:00:43;6.07;;;5.43;;
68050;SDS011;54839;51.364;7.246;2023-05-10T01:03:11;5.13;;;4.63;;
68050;SDS011;54839;51.364;7.246;2023-05-10T01:05:37;5.47;;;4.90;;
68050;SDS011;54839;51.364;7.246;2023-05-10T01:08:02;5.33;;;4.80;;
68050;SDS011;54839;51.364;7.246;2023-05-10T01:10:28;4.80;;;4.40;;
68050;SDS011;54839;51.364;7.246;2023-05-10T01:12:54;4.57;;;4.17;;
68050;SDS011;54839;51.364;7.246;2023-05-10T01:15:20;5.80;;;5.30;;
68050;SDS011;54839;51.364;7.246;2023-05-10T01:17:46;6.10;;;4.90;;
68050;SDS011;54839;51.364;7.246;2023-05-10T01:20:13;5.30;;;4.60;;
68050;SDS011;54839;51.364;7.246;2023-05-10T01:23:04;7.00;;;5.17;;
68050;SDS011;54839;51.364;7.246;2023-05-10T01:28:21;5.90;;;5.20;;
68050;SDS011;54839;51.364;7.246;2023-05-10T01:31:18;6.53;;;5.83;;
68050;SDS011;54839;51.364;7.246;2023-05-10T01:34:02;7.63;;;6.83;;
68050;SDS011;54839;51.364;7.246;2023-05-10T01:36:48;6.40;;;5.80;;
68050;SDS011;54839;51.364;7.246;2023-05-10T01:39:25;6.50;;;5.60;;
68050;SDS011;54839;51.364;7.246;2023-05-10T01:42:23;7.00;;;6.30;;
68050;SDS011;54839;51.364;7.246;2023-05-10T01:47:31;9.30;;;8.40;;
68050;SDS011;54839;51.364;7.246;2023-05-10T01:50:03;7.43;;;6.83;;
68050;SDS011;54839;51.364;7.246;2023-05-10T01:52:32;8.10;;;7.40;;
68050;SDS011;54839;51.364;7.246;2023-05-10T01:55:04;8.63;;;7.87;;
68050;SDS011;54839;51.364;7.246;2023-05-10T01:57:34;8.80;;;8.00;;
68050;SDS011;54839;51.364;7.246;2023-05-10T02:00:02;9.57;;;8.67;;
68050;SDS011;54839;51.364;7.246;2023-05-10T02:02:29;9.70;;;8.90;;
68050;SDS011;54839;51.364;7.246;2023-05-10T02:05:01;9.30;;;8.40;;
68050;SDS011;54839;51.364;7.246;2023-05-10T02:07:28;9.93;;;8.97;;
68050;SDS011;54839;51.364;7.246;2023-05-10T02:09:55;8.27;;;7.47;;
68050;SDS011;54839;51.364;7.246;2023-05-10T02:12:21;7.87;;;7.17;;
68050;SDS011;54839;51.364;7.246;2023-05-10T02:14:49;9.40;;;8.50;;
68050;SDS011;54839;51.364;7.246;2023-05-10T02:17:17;9.10;;;8.20;;
68050;SDS011;54839;51.364;7.246;2023-05-10T02:19:44;10.83;;;9.40;;
68050;SDS011;54839;51.364;7.246;2023-05-10T02:22:11;10.53;;;9.40;;
68050;SDS011;54839;51.364;7.246;2023-05-10T02:24:38;12.20;;;10.03;;
68050;SDS011;54839;51.364;7.246;2023-05-10T02:27:05;14.40;;;12.37;;
68050;SDS011;54839;51.364;7.246;2023-05-10T02:29:31;15.60;;;11.27;;
68050;SDS011;54839;51.364;7.246;2023-05-10T02:31:58;17.03;;;11.73;;
68050;SDS011;54839;51.364;7.246;2023-05-10T02:34:25;14.40;;;12.40;;
68050;SDS011;54839;51.364;7.246;2023-05-10T02:36:53;17.00;;;12.53;;
68050;SDS011;54839;51.364;7.246;2023-05-10T02:39:20;14.33;;;11.93;;
68050;SDS011;54839;51.364;7.246;2023-05-10T02:41:47;13.10;;;10.97;;
68050;SDS011;54839;51.364;7.246;2023-05-10T02:44:15;16.03;;;11.50;;
68050;SDS011;54839;51.364;7.246;2023-05-10T02:46:43;13.40;;;11.10;;
68050;SDS011;54839;51.364;7.246;2023-05-10T02:49:09;14.20;;;11.53;;
68050;SDS011;54839;51.364;7.246;2023-05-10T02:51:35;15.93;;;12.60;;
68050;SDS011;54839;51.364;7.246;2023-05-10T02:54:06;16.87;;;11.97;;
68050;SDS011;54839;51.364;7.246;2023-05-10T02:56:37;13.60;;;11.30;;
68050;SDS011;54839;51.364;7.246;2023-05-10T02:59:07;14.10;;;12.13;;
68050;SDS011;54839;51.364;7.246;2023-05-10T03:01:33;13.33;;;11.53;;
68050;SDS011;54839;51.364;7.246;2023-05-10T03:03:59;15.50;;;11.90;;
68050;SDS011;54839;51.364;7.246;2023-05-10T03:06:25;16.60;;;13.00;;
68050;SDS011;54839;51.364;7.246;2023-05-10T03:08:50;15.27;;;12.30;;
68050;SDS011;54839;51.364;7.246;2023-05-10T03:11:20;18.17;;;13.20;;
68050;SDS011;54839;51.364;7.246;2023-05-10T03:14:10;16.20;;;13.10;;
68050;SDS011;54839;51.364;7.246;2023-05-10T03:16:46;15.10;;;13.00;;
68050;SDS011;54839;51.364;7.246;2023-05-10T03:19:27;18.20;;;12.20;;
68050;SDS011;54839;51.364;7.246;2023-05-10T03:22:05;14.00;;;11.70;;
68050;SDS011;54839;51.364;7.246;2023-05-10T03:24:35;13.00;;;11.60;;
68050;SDS011;54839;51.364;7.246;2023-05-10T03:27:02;14.90;;;12.00;;
68050;SDS011;54839;51.364;7.246;2023-05-10T03:29:29;15.00;;;13.43;;
68050;SDS011;54839;51.364;7.246;2023-05-10T03:31:57;17.70;;;15.03;;
68050;SDS011;54839;51.364;7.246;2023-05-10T03:34:24;15.17;;;13.57;;
68050;SDS011;54839;51.364;7.246;2023-05-10T03:36:50;16.70;;;14.53;;
68050;SDS011;54839;51.364;7.246;2023-05-10T03:39:16;16.03;;;14.33;;
68050;SDS011;54839;51.364;7.246;2023-05-10T03:41:41;17.50;;;15.60;;
68050;SDS011;54839;51.364;7.246;2023-05-10T03:44:07;15.87;;;14.27;;
68050;SDS011;54839;51.364;7.246;2023-05-10T03:46:32;16.97;;;14.97;;
68050;SDS011;54839;51.364;7.246;2023-05-10T03:48:58;18.90;;;16.30;;
68050;SDS011;54839;51.364;7.246;2023-05-10T03:51:24;16.70;;;14.90;;
68050;SDS011;54839;51.364;7.246;2023-05-10T03:53:53;18.60;;;16.67;;
68050;SDS011;54839;51.364;7.246;2023-05-10T03:56:18;19.40;;;16.50;;
68050;SDS011;54839;51.364;7.246;2023-05-10T03:58:45;17.97;;;15.10;;
68050;SDS011;54839;51.364;7.246;2023-05-10T04:01:11;17.53;;;15.63;;
68050;SDS011;54839;51.364;7.246;2023-05-10T04:03:36;20.67;;;18.47;;
68050;SDS011;54839;51.364;7.246;2023-05-10T04:06:03;20.30;;;17.60;;
68050;SDS011;54839;51.364;7.246;2023-05-10T04:08:28;21.60;;;19.17;;
68050;SDS011;54839;51.364;7.246;2023-05-10T04:10:54;21.10;;;18.30;;
68050;SDS011;54839;51.364;7.246;2023-05-10T04:13:29;21.87;;;19.47;;
68050;SDS011;54839;51.364;7.246;2023-05-10T04:15:54;19.90;;;17.50;;
68050;SDS011;54839;51.364;7.246;2023-05-10T04:18:20;19.90;;;17.70;;
68050;SDS011;54839;51.364;7.246;2023-05-10T04:20:45;18.10;;;15.57;;
68050;SDS011;54839;51.364;7.246;2023-05-10T04:23:11;20.20;;;18.03;;
68050;SDS011;54839;51.364;7.246;2023-05-10T04:25:36;23.17;;;17.00;;
68050;SDS011;54839;51.364;7.246;2023-05-10T04:28:02;19.50;;;16.57;;
68050;SDS011;54839;51.364;7.246;2023-05-10T04:30:27;19.47;;;16.67;;
68050;SDS011;54839;51.364;7.246;2023-05-10T04:32:54;19.70;;;16.40;;
68050;SDS011;54839;51.364;7.246;2023-05-10T04:35:19;21.00;;;15.33;;
68050;SDS011;54839;51.364;7.246;2023-05-10T04:37:45;19.67;;;16.27;;
68050;SDS011;54839;51.364;7.246;2023-05-10T04:40:10;19.93;;;15.87;;
68050;SDS011;54839;51.364;7.246;2023-05-10T04:42:36;17.13;;;15.33;;
68050;SDS011;54839;51.364;7.246;2023-05-10T04:45:04;25.50;;;17.80;;
68050;SDS011;54839;51.364;7.246;2023-05-10T04:47:31;27.27;;;18.97;;
68050;SDS011;54839;51.364;7.246;2023-05-10T04:49:57;26.20;;;18.83;;
68050;SDS011;54839;51.364;7.246;2023-05-10T04:52:23;26.73;;;20.60;;
68050;SDS011;54839;51.364;7.246;2023-05-10T04:54:49;26.10;;;19.53;;
68050;SDS011;54839;51.364;7.246;2023-05-10T04:57:14;24.20;;;18.80;;
68050;SDS011;54839;51.364;7.246;2023-05-10T04:59:40;29.93;;;22.70;;
68050;SDS011;54839;51.364;7.246;2023-05-10T05:02:05;30.00;;;22.00;;
68050;SDS011;54839;51.364;7.246;2023-05-10T05:04:31;30.97;;;21.30;;
68050;SDS011;54839;51.364;7.246;2023-05-10T05:06:57;27.10;;;19.80;;
68050;SDS011;54839;51.364;7.246;2023-05-10T05:09:22;30.73;;;21.80;;
68050;SDS011;54839;51.364;7.246;2023-05-10T05:11:48;30.87;;;22.47;;
68050;SDS011;54839;51.364;7.246;2023-05-10T05:14:13;32.70;;;24.40;;
68050;SDS011;54839;51.364;7.246;2023-05-10T05:16:39;33.27;;;23.67;;
68050;SDS011;54839;51.364;7.246;2023-05-10T05:19:04;35.20;;;24.17;;
68050;SDS011;54839;51.364;7.246;2023-05-10T05:21:30;32.43;;;23.70;;
68050;SDS011;54839;51.364;7.246;2023-05-10T05:23:57;27.13;;;23.10;;
68050;SDS011;54839;51.364;7.246;2023-05-10T05:26:22;33.13;;;24.33;;
68050;SDS011;54839;51.364;7.246;2023-05-10T05:28:48;32.20;;;24.53;;
68050;SDS011;54839;51.364;7.246;2023-05-10T05:31:16;32.10;;;25.20;;
68050;SDS011;54839;51.364;7.246;2023-05-10T05:33:42;31.87;;;22.73;;
68050;SDS011;54839;51.364;7.246;2023-05-10T05:36:08;31.27;;;22.53;;
68050;SDS011;54839;51.364;7.246;2023-05-10T05:38:34;35.70;;;24.57;;
68050;SDS011;54839;51.364;7.246;2023-05-10T05:40:59;30.33;;;24.00;;
68050;SDS011;54839;51.364;7.246;2023-05-10T05:43:25;33.37;;;24.50;;
68050;SDS011;54839;51.364;7.246;2023-05-10T05:45:53;28.50;;;22.30;;
68050;SDS011;54839;51.364;7.246;2023-05-10T05:48:19;33.93;;;23.77;;
68050;SDS011;54839;51.364;7.246;2023-05-10T05:50:45;32.60;;;24.50;;
68050;SDS011;54839;51.364;7.246;2023-05-10T05:53:11;33.63;;;24.00;;
68050;SDS011;54839;51.364;7.246;2023-05-10T05:55:37;34.47;;;23.87;;
68050;SDS011;54839;51.364;7.246;2023-05-10T05:58:02;34.47;;;23.93;;
68050;SDS011;54839;51.364;7.246;2023-05-10T06:00:28;34.83;;;24.60;;
68050;SDS011;54839;51.364;7.246;2023-05-10T06:02:53;33.40;;;23.30;;
68050;SDS011;54839;51.364;7.246;2023-05-10T06:05:19;30.30;;;22.40;;
68050;SDS011;54839;51.364;7.246;2023-05-10T06:07:45;29.87;;;24.03;;
68050;SDS011;54839;51.364;7.246;2023-05-10T06:10:11;33.53;;;24.67;;
68050;SDS011;54839;51.364;7.246;2023-05-10T06:12:36;34.13;;;24.70;;
68050;SDS011;54839;51.364;7.246;2023-05-10T06:15:03;30.60;;;23.30;;
68050;SDS011;54839;51.364;7.246;2023-05-10T06:17:28;35.00;;;24.70;;
68050;SDS011;54839;51.364;7.246;2023-05-10T06:19:54;28.07;;;22.10;;
68050;SDS011;54839;51.364;7.246;2023-05-10T06:22:20;27.70;;;22.43;;
68050;SDS011;54839;51.364;7.246;2023-05-10T06:24:47;31.37;;;22.97;;
68050;SDS011;54839;51.364;7.246;2023-05-10T06:27:13;29.00;;;22.47;;
68050;SDS011;54839;51.364;7.246;2023-05-10T06:29:39;24.10;;;19.83;;
68050;SDS011;54839;51.364;7.246;2023-05-10T06:32:04;27.73;;;20.17;;
68050;SDS011;54839;51.364;7.246;2023-05-10T06:34:30;26.83;;;21.40;;
68050;SDS011;54839;51.364;7.246;2023-05-10T06:36:56;30.07;;;21.40;;
68050;SDS011;54839;51.364;7.246;2023-05-10T06:39:22;29.00;;;20.07;;
68050;SDS011;54839;51.364;7.246;2023-05-10T06:41:47;26.43;;;20.30;;
68050;SDS011;54839;51.364;7.246;2023-05-10T06:44:13;26.83;;;20.30;;
68050;SDS011;54839;51.364;7.246;2023-05-10T06:46:38;30.20;;;21.23;;
68050;SDS011;54839;51.364;7.246;2023-05-10T06:49:04;28.70;;;21.80;;
68050;SDS011;54839;51.364;7.246;2023-05-10T06:51:29;24.33;;;20.77;;
68050;SDS011;54839;51.364;7.246;2023-05-10T06:53:55;25.83;;;21.10;;
68050;SDS011;54839;51.364;7.246;2023-05-10T06:56:21;32.47;;;22.10;;
68050;SDS011;54839;51.364;7.246;2023-05-10T06:58:49;26.47;;;20.33;;
68050;SDS011;54839;51.364;7.246;2023-05-10T07:01:15;26.17;;;17.37;;
68050;SDS011;54839;51.364;7.246;2023-05-10T07:03:40;25.10;;;18.87;;
68050;SDS011;54839;51.364;7.246;2023-05-10T07:06:06;27.27;;;20.73;;
68050;SDS011;54839;51.364;7.246;2023-05-10T07:08:32;29.20;;;19.70;;
68050;SDS011;54839;51.364;7.246;2023-05-10T07:10:59;28.03;;;20.83;;
68050;SDS011;54839;51.364;7.246;2023-05-10T07:13:29;25.20;;;17.47;;
68050;SDS011;54839;51.364;7.246;2023-05-10T07:15:58;22.83;;;18.40;;
68050;SDS011;54839;51.364;7.246;2023-05-10T07:18:24;25.87;;;18.90;;
68050;SDS011;54839;51.364;7.246;2023-05-10T07:20:50;22.17;;;18.57;;
68050;SDS011;54839;51.364;7.246;2023-05-10T07:23:16;20.03;;;16.43;;
68050;SDS011;54839;51.364;7.246;2023-05-10T07:25:44;26.00;;;18.70;;
68050;SDS011;54839;51.364;7.246;2023-05-10T07:28:11;19.53;;;17.30;;
68050;SDS011;54839;51.364;7.246;2023-05-10T07:30:37;19.03;;;16.83;;
68050;SDS011;54839;51.364;7.246;2023-05-10T07:33:02;24.40;;;16.10;;
68050;SDS011;54839;51.364;7.246;2023-05-10T07:35:28;18.20;;;15.40;;
68050;SDS011;54839;51.364;7.246;2023-05-10T07:37:53;20.10;;;16.00;;
68050;SDS011;54839;51.364;7.246;2023-05-10T07:40:19;22.57;;;16.23;;
68050;SDS011;54839;51.364;7.246;2023-05-10T07:42:44;23.00;;;16.93;;
68050;SDS011;54839;51.364;7.246;2023-05-10T07:45:10;20.20;;;16.43;;
68050;SDS011;54839;51.364;7.246;2023-05-10T07:47:36;22.40;;;17.07;;
68050;SDS011;54839;51.364;7.246;2023-05-10T07:50:01;22.40;;;17.43;;
68050;SDS011;54839;51.364;7.246;2023-05-10T07:52:27;24.77;;;19.10;;
68050;SDS011;54839;51.364;7.246;2023-05-10T07:54:52;30.03;;;17.73;;
68050;SDS011;54839;51.364;7.246;2023-05-10T07:57:18;21.97;;;17.00;;
68050;SDS011;54839;51.364;7.246;2023-05-10T07:59:44;24.57;;;17.90;;
68050;SDS011;54839;51.364;7.246;2023-05-10T08:02:10;25.77;;;19.23;;
68050;SDS011;54839;51.364;7.246;2023-05-10T08:04:35;23.23;;;17.87;;
68050;SDS011;54839;51.364;7.246;2023-05-10T08:07:01;27.10;;;20.90;;
68050;SDS011;54839;51.364;7.246;2023-05-10T08:09:27;24.93;;;19.63;;
68050;SDS011;54839;51.364;7.246;2023-05-10T08:11:52;25.90;;;17.93;;
68050;SDS011;54839;51.364;7.246;2023-05-10T08:14:18;27.40;;;19.60;;
68050;SDS011;54839;51.364;7.246;2023-05-10T08:16:43;27.40;;;18.27;;
68050;SDS011;54839;51.364;7.246;2023-05-10T08:19:09;22.40;;;16.07;;
68050;SDS011;54839;51.364;7.246;2023-05-10T08:21:34;24.83;;;20.20;;
68050;SDS011;54839;51.364;7.246;2023-05-10T08:24:00;24.97;;;18.17;;
68050;SDS011;54839;51.364;7.246;2023-05-10T08:26:26;24.13;;;17.53;;
68050;SDS011;54839;51.364;7.246;2023-05-10T08:28:52;19.23;;;16.33;;
68050;SDS011;54839;51.364;7.246;2023-05-10T08:31:17;19.27;;;15.20;;
68050;SDS011;54839;51.364;7.246;2023-05-10T08:33:43;22.80;;;16.70;;
68050;SDS011;54839;51.364;7.246;2023-05-10T08:36:09;20.43;;;16.67;;
68050;SDS011;54839;51.364;7.246;2023-05-10T08:38:35;19.40;;;16.03;;
68050;SDS011;54839;51.364;7.246;2023-05-10T08:41:00;19.17;;;14.80;;
68050;SDS011;54839;51.364;7.246;2023-05-10T08:43:27;16.67;;;13.47;;
68050;SDS011;54839;51.364;7.246;2023-05-10T08:45:54;15.63;;;12.23;;
68050;SDS011;54839;51.364;7.246;2023-05-10T08:48:22;17.70;;;14.40;;
68050;SDS011;54839;51.364;7.246;2023-05-10T08:50:49;23.83;;;15.33;;
68050;SDS011;54839;51.364;7.246;2023-05-10T08:53:22;18.73;;;14.20;;
68050;SDS011;54839;51.364;7.246;2023-05-10T08:55:50;20.73;;;15.10;;
68050;SDS011;54839;51.364;7.246;2023-05-10T08:58:16;15.13;;;11.60;;
68050;SDS011;54839;51.364;7.246;2023-05-10T09:00:44;18.10;;;12.67;;
68050;SDS011;54839;51.364;7.246;2023-05-10T09:03:10;16.23;;;12.53;;
68050;SDS011;54839;51.364;7.246;2023-05-10T09:05:36;13.93;;;12.03;;
68050;SDS011;54839;51.364;7.246;2023-05-10T09:08:02;14.33;;;11.07;;
68050;SDS011;54839;51.364;7.246;2023-05-10T09:10:28;16.30;;;10.63;;
68050;SDS011;54839;51.364;7.246;2023-05-10T09:12:56;13.17;;;10.70;;
68050;SDS011;54839;51.364;7.246;2023-05-10T09:15:22;12.07;;;9.00;;
68050;SDS011;54839;51.364;7.246;2023-05-10T09:17:48;11.73;;;9.23;;
68050;SDS011;54839;51.364;7.246;2023-05-10T09:20:14;14.53;;;10.57;;
68050;SDS011;54839;51.364;7.246;2023-05-10T09:22:42;11.50;;;8.90;;
68050;SDS011;54839;51.364;7.246;2023-05-10T09:27:41;13.50;;;10.00;;
68050;SDS011;54839;51.364;7.246;2023-05-10T09:30:15;11.47;;;9.70;;
68050;SDS011;54839;51.364;7.246;2023-05-10T09:32:51;11.43;;;10.03;;
68050;SDS011;54839;51.364;7.246;2023-05-10T09:35:18;12.47;;;10.47;;
68050;SDS011;54839;51.364;7.246;2023-05-10T09:37:46;13.07;;;10.90;;
68050;SDS011;54839;51.364;7.246;2023-05-10T09:40:15;13.40;;;10.80;;
68050;SDS011;54839;51.364;7.246;2023-05-10T09:42:43;11.83;;;10.27;;
68050;SDS011;54839;51.364;7.246;2023-05-10T09:45:21;14.77;;;11.33;;
68050;SDS011;54839;51.364;7.246;2023-05-10T09:47:48;13.33;;;10.83;;
68050;SDS011;54839;51.364;7.246;2023-05-10T09:50:13;16.50;;;13.40;;
68050;SDS011;54839;51.364;7.246;2023-05-10T09:52:52;11.97;;;10.43;;
68050;SDS011;54839;51.364;7.246;2023-05-10T09:55:20;15.67;;;10.53;;
68050;SDS011;54839;51.364;7.246;2023-05-10T09:57:48;16.00;;;10.83;;
68050;SDS011;54839;51.364;7.246;2023-05-10T10:00:18;15.93;;;12.00;;
68050;SDS011;54839;51.364;7.246;2023-05-10T10:02:45;14.60;;;12.03;;
68050;SDS011;54839;51.364;7.246;2023-05-10T10:05:19;19.17;;;11.87;;
68050;SDS011;54839;51.364;7.246;2023-05-10T10:07:45;20.13;;;13.40;;
68050;SDS011;54839;51.364;7.246;2023-05-10T10:10:11;19.13;;;13.60;;
68050;SDS011;54839;51.364;7.246;2023-05-10T10:12:38;18.57;;;14.40;;
68050;SDS011;54839;51.364;7.246;2023-05-10T10:15:05;21.00;;;14.50;;
68050;SDS011;54839;51.364;7.246;2023-05-10T10:17:32;19.20;;;14.83;;
68050;SDS011;54839;51.364;7.246;2023-05-10T10:20:01;18.87;;;16.00;;
68050;SDS011;54839;51.364;7.246;2023-05-10T10:22:28;17.43;;;15.00;;
68050;SDS011;54839;51.364;7.246;2023-05-10T10:24:54;26.07;;;18.23;;
68050;SDS011;54839;51.364;7.246;2023-05-10T10:27:22;30.50;;;20.90;;
68050;SDS011;54839;51.364;7.246;2023-05-10T10:32:33;25.37;;;18.07;;
68050;SDS011;54839;51.364;7.246;2023-05-10T10:35:13;28.10;;;16.83;;
68050;SDS011;54839;51.364;7.246;2023-05-10T10:37:43;23.50;;;17.57;;
68050;SDS011;54839;51.364;7.246;2023-05-10T10:40:23;25.03;;;18.43;;
68050;SDS011;54839;51.364;7.246;2023-05-10T10:42:56;26.03;;;15.90;;
68050;SDS011;54839;51.364;7.246;2023-05-10T10:45:23;23.53;;;17.70;;
68050;SDS011;54839;51.364;7.246;2023-05-10T10:50:47;20.60;;;16.87;;
68050;SDS011;54839;51.364;7.246;2023-05-10T10:53:20;19.57;;;15.73;;
68050;SDS011;54839;51.364;7.246;2023-05-10T10:55:46;22.43;;;13.90;;
68050;SDS011;54839;51.364;7.246;2023-05-10T10:58:28;17.57;;;14.53;;
68050;SDS011;54839;51.364;7.246;2023-05-10T11:01:15;16.50;;;13.83;;
68050;SDS011;54839;51.364;7.246;2023-05-10T11:03:54;20.80;;;14.13;;
68050;SDS011;54839;51.364;7.246;2023-05-10T11:06:41;16.60;;;13.03;;
68050;SDS011;54839;51.364;7.246;2023-05-10T11:09:08;17.43;;;13.17;;
68050;SDS011;54839;51.364;7.246;2023-05-10T11:11:35;14.03;;;11.77;;
68050;SDS011;54839;51.364;7.246;2023-05-10T11:14:04;16.10;;;12.10;;
68050;SDS011;54839;51.364;7.246;2023-05-10T11:16:41;15.23;;;11.57;;
68050;SDS011;54839;51.364;7.246;2023-05-10T11:19:11;14.83;;;11.57;;
68050;SDS011;54839;51.364;7.246;2023-05-10T11:24:35;13.93;;;11.53;;
68050;SDS011;54839;51.364;7.246;2023-05-10T11:27:01;17.00;;;12.70;;
68050;SDS011;54839;51.364;7.246;2023-05-10T11:29:26;17.77;;;12.57;;
68050;SDS011;54839;51.364;7.246;2023-05-10T11:31:52;13.90;;;11.70;;
68050;SDS011;54839;51.364;7.246;2023-05-10T11:34:25;16.30;;;13.30;;
68050;SDS011;54839;51.364;7.246;2023-05-10T11:36:55;17.93;;;13.40;;
68050;SDS011;54839;51.364;7.246;2023-05-10T11:39:25;15.77;;;13.37;;
68050;SDS011;54839;51.364;7.246;2023-05-10T11:41:52;18.23;;;11.90;;
68050;SDS011;54839;51.364;7.246;2023-05-10T11:44:18;23.13;;;15.80;;
68050;SDS011;54839;51.364;7.246;2023-05-10T11:46:43;16.60;;;14.90;;
68050;SDS011;54839;51.364;7.246;2023-05-10T11:49:09;17.50;;;15.37;;
68050;SDS011;54839;51.364;7.246;2023-05-10T11:51:35;22.27;;;14.57;;
68050;SDS011;54839;51.364;7.246;2023-05-10T11:54:02;19.53;;;12.33;;
68050;SDS011;54839;51.364;7.246;2023-05-10T11:56:34;16.10;;;14.07;;
68050;SDS011;54839;51.364;7.246;2023-05-10T11:59:00;19.47;;;14.90;;
68050;SDS011;54839;51.364;7.246;2023-05-10T12:01:27;19.90;;;14.13;;
68050;SDS011;54839;51.364;7.246;2023-05-10T12:03:54;16.13;;;13.13;;
68050;SDS011;54839;51.364;7.246;2023-05-10T12:06:25;13.60;;;10.40;;
68050;SDS011;54839;51.364;7.246;2023-05-10T12:08:52;15.80;;;12.57;;
68050;SDS011;54839;51.364;7.246;2023-05-10T12:11:18;16.50;;;11.90;;
68050;SDS011;54839;51.364;7.246;2023-05-10T12:13:45;15.03;;;13.20;;
68050;SDS011;54839;51.364;7.246;2023-05-10T12:16:15;13.43;;;11.40;;
68050;SDS011;54839;51.364;7.246;2023-05-10T12:18:48;14.87;;;11.40;;
68050;SDS011;54839;51.364;7.246;2023-05-10T12:21:14;15.10;;;11.60;;
68050;SDS011;54839;51.364;7.246;2023-05-10T12:23:40;12.33;;;9.30;;
68050;SDS011;54839;51.364;7.246;2023-05-10T12:26:08;13.77;;;11.37;;
68050;SDS011;54839;51.364;7.246;2023-05-10T12:28:35;12.27;;;10.50;;
68050;SDS011;54839;51.364;7.246;2023-05-10T12:31:01;13.77;;;11.10;;
68050;SDS011;54839;51.364;7.246;2023-05-10T12:33:28;12.50;;;10.23;;
68050;SDS011;54839;51.364;7.246;2023-05-10T12:36:04;11.50;;;9.70;;
68050;SDS011;54839;51.364;7.246;2023-05-10T12:38:34;11.70;;;8.93;;
68050;SDS011;54839;51.364;7.246;2023-05-10T12:41:03;10.70;;;9.30;;
68050;SDS011;54839;51.364;7.246;2023-05-10T12:43:30;12.67;;;9.30;;
68050;SDS011;54839;51.364;7.246;2023-05-10T12:45:56;11.30;;;9.13;;
68050;SDS011;54839;51.364;7.246;2023-05-10T12:48:22;12.50;;;8.90;;
68050;SDS011;54839;51.364;7.246;2023-05-10T12:50:48;13.00;;;11.63;;
68050;SDS011;54839;51.364;7.246;2023-05-10T12:53:14;12.30;;;10.10;;
68050;SDS011;54839;51.364;7.246;2023-05-10T12:55:40;12.80;;;10.97;;
68050;SDS011;54839;51.364;7.246;2023-05-10T12:58:06;18.00;;;12.43;;
68050;SDS011;54839;51.364;7.246;2023-05-10T13:00:32;12.50;;;10.90;;
68050;SDS011;54839;51.364;7.246;2023-05-10T13:02:58;13.20;;;10.83;;
68050;SDS011;54839;51.364;7.246;2023-05-10T13:05:23;17.80;;;11.70;;
68050;SDS011;54839;51.364;7.246;2023-05-10T13:07:49;19.07;;;12.60;;
68050;SDS011;54839;51.364;7.246;2023-05-10T13:10:14;17.83;;;13.63;;
68050;SDS011;54839;51.364;7.246;2023-05-10T13:12:41;13.00;;;11.47;;
68050;SDS011;54839;51.364;7.246;2023-05-10T13:15:06;15.70;;;12.83;;
68050;SDS011;54839;51.364;7.246;2023-05-10T13:17:32;22.37;;;12.07;;
68050;SDS011;54839;51.364;7.246;2023-05-10T13:19:58;13.47;;;12.07;;
68050;SDS011;54839;51.364;7.246;2023-05-10T13:22:23;14.03;;;12.00;;
68050;SDS011;54839;51.364;7.246;2023-05-10T13:24:49;15.63;;;12.27;;
68050;SDS011;54839;51.364;7.246;2023-05-10T13:27:14;11.97;;;10.77;;
68050;SDS011;54839;51.364;7.246;2023-05-10T13:29:40;14.13;;;12.50;;
68050;SDS011;54839;51.364;7.246;2023-05-10T13:32:06;13.33;;;11.90;;
68050;SDS011;54839;51.364;7.246;2023-05-10T13:34:31;9.40;;;8.50;;
68050;SDS011;54839;51.364;7.246;2023-05-10T13:36:57;9.03;;;8.23;;
68050;SDS011;54839;51.364;7.246;2023-05-10T13:39:22;8.67;;;7.80;;
68050;SDS011;54839;51.364;7.246;2023-05-10T13:41:48;9.67;;;8.77;;
68050;SDS011;54839;51.364;7.246;2023-05-10T13:44:14;9.90;;;8.17;;
68050;SDS011;54839;51.364;7.246;2023-05-10T13:46:42;8.33;;;7.73;;
68050;SDS011;54839;51.364;7.246;2023-05-10T13:49:08;9.40;;;7.87;;
68050;SDS011;54839;51.364;7.246;2023-05-10T13:51:34;10.20;;;8.20;;
68050;SDS011;54839;51.364;7.246;2023-05-10T13:54:00;8.07;;;7.27;;
68050;SDS011;54839;51.364;7.246;2023-05-10T13:56:26;8.13;;;7.43;;
68050;SDS011;54839;51.364;7.246;2023-05-10T13:58:52;8.27;;;7.50;;
68050;SDS011;54839;51.364;7.246;2023-05-10T14:01:17;8.07;;;6.70;;
68050;SDS011;54839;51.364;7.246;2023-05-10T14:03:43;7.60;;;7.00;;
68050;SDS011;54839;51.364;7.246;2023-05-10T14:06:09;8.00;;;7.20;;
68050;SDS011;54839;51.364;7.246;2023-05-10T14:08:35;8.80;;;8.10;;
68050;SDS011;54839;51.364;7.246;2023-05-10T14:11:00;9.00;;;7.60;;
68050;SDS011;54839;51.364;7.246;2023-05-10T14:13:26;8.33;;;7.60;;
68050;SDS011;54839;51.364;7.246;2023-05-10T14:15:52;6.67;;;5.50;;
68050;SDS011;54839;51.364;7.246;2023-05-10T14:18:18;8.90;;;7.47;;
68050;SDS011;54839;51.364;7.246;2023-05-10T14:20:44;7.60;;;6.90;;
68050;SDS011;54839;51.364;7.246;2023-05-10T14:23:10;11.70;;;9.60;;
68050;SDS011;54839;51.364;7.246;2023-05-10T14:25:35;10.80;;;9.70;;
68050;SDS011;54839;51.364;7.246;2023-05-10T14:28:01;10.43;;;9.53;;
68050;SDS011;54839;51.364;7.246;2023-05-10T14:30:26;10.37;;;9.10;;
68050;SDS011;54839;51.364;7.246;2023-05-10T14:32:52;9.17;;;8.27;;
68050;SDS011;54839;51.364;7.246;2023-05-10T14:35:19;9.90;;;8.20;;
68050;SDS011;54839;51.364;7.246;2023-05-10T14:37:44;8.43;;;7.63;;
68050;SDS011;54839;51.364;7.246;2023-05-10T14:40:10;10.40;;;8.80;;
68050;SDS011;54839;51.364;7.246;2023-05-10T14:42:37;10.33;;;8.27;;
68050;SDS011;54839;51.364;7.246;2023-05-10T14:45:03;9.97;;;7.93;;
68050;SDS011;54839;51.364;7.246;2023-05-10T14:47:29;11.03;;;9.60;;